Asiatic Liberty — 9V3932 — position and weather

sailwx.info

Track history (hours):
 
Tides and Currents Weather Stations Pressure Air Temp Water Temp Dewpoint Dewpoint Depression Visibility Wind Speed Wind Dir Waves Ship Positions

Asiatic Liberty

Last reported at 2017-Dec-14 13:08 UTC. Time now 2017-Dec-16 09:18 UTC.
Position N 31°51' E 034°38'.

Length 150 m; draft 8.4 m.

Type: Ship (hazmat cat A). MMSI: 565834000.

Date/timePositionNaut miles runAvg speedWind from/ knotsBaromVisibWave heightAir tempDewpointWater temp
2017-Dec-14 13:08N 31°51' E 034°38'1 5.2
2017-Dec-14 12:59N 31°51' E 034°37'11 1.9
2017-Dec-14 07:24N 32°01' E 034°31'2 3.6
2017-Dec-14 06:47N 32°03' E 034°32'1 4.0
2017-Dec-14 06:29N 32°04' E 034°32'2 4.4
2017-Dec-14 06:00N 32°06' E 034°33'2 4.4
2017-Dec-14 05:30N 32°08' E 034°33'2 4.6
2017-Dec-14 05:00N 32°10' E 034°34'2 4.5
2017-Dec-14 04:30N 32°12' E 034°35'2 4.6
2017-Dec-14 04:00N 32°15' E 034°36'2 4.6
2017-Dec-14 03:30N 32°17' E 034°37'2 4.6
2017-Dec-14 03:00N 32°19' E 034°37'2 4.6
2017-Dec-14 02:30N 32°21' E 034°38'2 4.6
2017-Dec-14 02:00N 32°23' E 034°39'2 4.5
2017-Dec-14 01:30N 32°26' E 034°39'2 4.6
2017-Dec-14 01:00N 32°28' E 034°40'2 4.7
2017-Dec-14 00:30N 32°30' E 034°41'2 4.6
2017-Dec-14 00:00N 32°32' E 034°42'2 4.6
2017-Dec-13 23:30N 32°35' E 034°43'2 4.5
2017-Dec-13 23:00N 32°37' E 034°43'2 4.3
2017-Dec-13 22:30N 32°39' E 034°44'2 4.2
2017-Dec-13 22:00N 32°41' E 034°45'2 4.3
2017-Dec-13 21:30N 32°43' E 034°46'2 4.4
2017-Dec-13 21:00N 32°45' E 034°47'2 4.6
2017-Dec-13 20:30N 32°47' E 034°48'2 4.5
2017-Dec-13 20:00N 32°49' E 034°49'2 4.5
2017-Dec-13 19:30N 32°51' E 034°49'2 3.4
2017-Dec-13 19:00N 32°52' E 034°51'2 4.1
2017-Dec-13 18:30N 32°52' E 034°54'2 4.3
2017-Dec-13 17:58N 32°52' E 034°56'4 4.4
2017-Dec-13 17:03N 32°51' E 035°01'0 4.1
2017-Dec-13 16:59N 32°51' E 035°01'11 0.7
2017-Dec-13 01:49N 32°53' E 034°48'3 9.6
2017-Dec-13 01:30N 32°54' E 034°45'8 9.6
2017-Dec-13 00:42N 32°55' E 034°36'310.2
2017-Dec-13 00:26N 32°56' E 034°33'510.2
2017-Dec-12 23:59N 32°57' E 034°27'510.5
2017-Dec-12 23:28N 32°58' E 034°21'510.6
2017-Dec-12 23:00N 32°59' E 034°15'510.6
2017-Dec-12 22:30N 32°60' E 034°09'510.4
2017-Dec-12 22:01N 33°01' E 034°03'610.3
2017-Dec-12 21:22N 33°03' E 033°56'910.6
2017-Dec-12 20:30N 33°06' E 033°45'510.7
2017-Dec-12 20:01N 33°08' E 033°39'41714.6
2017-Dec-11 15:24N 35°29' E 025°44'818.6
2017-Dec-11 14:57N 35°29' E 025°33'818.4
2017-Dec-11 14:31N 35°30' E 025°23'918.5
2017-Dec-11 14:01N 35°31' E 025°12'3517.2
2017-Dec-11 12:00N 35°33' E 024°30'  
2017-Dec-08 23:38N 43°56' E 013°43'210.1
2017-Dec-08 23:29N 43°57' E 013°42'510.0
2017-Dec-08 23:00N 44°00' E 013°36'12 9.7
2017-Dec-08 21:44N 44°07' E 013°22'3 9.7
2017-Dec-08 21:26N 44°09' E 013°19'4 9.8
2017-Dec-08 21:00N 44°11' E 013°14'5 9.8
2017-Dec-08 20:30N 44°14' E 013°08'5 9.9
2017-Dec-08 20:01N 44°16' E 013°03'5 9.7
2017-Dec-08 19:31N 44°19' E 012°57'5 9.7
2017-Dec-08 19:01N 44°21' E 012°51'5 9.8
2017-Dec-08 18:31N 44°24' E 012°45'510.0
2017-Dec-08 18:00N 44°26' E 012°39'510.2
2017-Dec-08 17:31N 44°28' E 012°32'510.3
2017-Dec-08 17:01N 44°30' E 012°25'510.4
2017-Dec-08 16:30N 44°30' E 012°18'4 0.7
2017-Dec-08 10:49N 44°27' E 012°15'0 0.0
2017-Dec-08 10:19N 44°27' E 012°15'0 0.0
2017-Dec-08 09:58N 44°27' E 012°15'0 0.0
2017-Dec-08 09:25N 44°27' E 012°15'0 0.0
2017-Dec-08 08:55N 44°27' E 012°15'0 0.0
2017-Dec-08 08:30N 44°27' E 012°15'0 0.0
2017-Dec-08 08:00N 44°27' E 012°15'0 0.0
2017-Dec-08 07:24N 44°27' E 012°15'0 0.0
2017-Dec-08 06:54N 44°27' E 012°15'0 0.0
2017-Dec-08 06:30N 44°27' E 012°15'0 0.0
2017-Dec-08 05:59N 44°27' E 012°15'0 0.0
2017-Dec-08 05:14N 44°27' E 012°15'0 0.0
2017-Dec-08 04:56N 44°27' E 012°15'0 0.0
2017-Dec-08 02:37N 44°27' E 012°15'1 4.5
2017-Dec-08 02:23N 44°28' E 012°15'2 6.4
2017-Dec-08 02:00N 44°30' E 012°17'5 9.2
2017-Dec-08 01:30N 44°31' E 012°23'611.8
2017-Dec-08 01:00N 44°37' E 012°27'4 8.3
2017-Dec-08 00:30N 44°40' E 012°29'5 8.6
2017-Dec-07 23:59N 44°44' E 012°32'4 9.0
2017-Dec-07 23:30N 44°48' E 012°34'5 9.3
2017-Dec-07 23:00N 44°53' E 012°37'5 9.5
2017-Dec-07 22:30N 44°57' E 012°39'5 9.4
2017-Dec-07 22:00N 45°02' E 012°39'5 9.3
2017-Dec-07 21:30N 45°07' E 012°39'5 9.4
2017-Dec-07 21:00N 45°10' E 012°34'5 9.2
2017-Dec-07 20:31N 45°13' E 012°30'5 9.3
2017-Dec-07 20:00N 45°17' E 012°26'510.0
2017-Dec-07 19:30N 45°20' E 012°21'4 8.7
2017-Dec-07 19:00N 45°22' E 012°15'4 7.9
2017-Dec-07 18:30N 45°26' E 012°16'1 1.9
2017-Dec-07 17:58N 45°27' E 012°15'0 0.0
2017-Dec-07 17:28N 45°27' E 012°15'0 0.0
2017-Dec-07 17:00N 45°27' E 012°15'0 0.0
2017-Dec-07 16:30N 45°27' E 012°15'0 0.0
2017-Dec-07 16:00N 45°27' E 012°15'0 0.0
2017-Dec-07 15:30N 45°27' E 012°15'0 0.0
2017-Dec-07 15:00N 45°27' E 012°15'0 0.0
2017-Dec-07 14:29N 45°27' E 012°15'0 0.0
2017-Dec-07 13:59N 45°27' E 012°15'0 0.0
2017-Dec-07 13:29N 45°27' E 012°15'0 0.0
2017-Dec-07 12:59N 45°27' E 012°15'0 0.0
2017-Dec-07 12:28N 45°27' E 012°15'0 0.0
2017-Dec-07 11:58N 45°27' E 012°15'0 0.0
2017-Dec-07 11:28N 45°27' E 012°15'0 0.0
2017-Dec-07 10:58N 45°27' E 012°15'0 0.0
2017-Dec-07 10:28N 45°27' E 012°15'0 0.0
2017-Dec-07 09:57N 45°27' E 012°15'0 0.0
2017-Dec-07 09:30N 45°27' E 012°15'0 0.0
2017-Dec-07 09:00N 45°27' E 012°15'0 0.0
2017-Dec-07 08:30N 45°27' E 012°15'0 0.0
2017-Dec-07 08:00N 45°27' E 012°15'0 0.0
2017-Dec-07 07:29N 45°27' E 012°15'0 0.0
2017-Dec-07 06:59N 45°27' E 012°15'0 0.0
2017-Dec-07 06:29N 45°27' E 012°15'0 0.0
2017-Dec-07 05:56N 45°27' E 012°15'0 0.0
2017-Dec-07 05:28N 45°27' E 012°15'0 0.0
2017-Dec-07 04:58N 45°27' E 012°15'0 0.0
2017-Dec-07 04:19N 45°27' E 012°15'0 0.0
2017-Dec-07 03:58N 45°27' E 012°15'0 0.0
2017-Dec-07 03:31N 45°27' E 012°15'0 0.0
2017-Dec-07 03:00N 45°27' E 012°15'0 0.0
2017-Dec-07 02:30N 45°27' E 012°15'0 0.0
2017-Dec-07 02:00N 45°27' E 012°15'0 0.0
2017-Dec-07 01:30N 45°27' E 012°15'0 0.0
2017-Dec-07 00:59N 45°27' E 012°15'0 0.0
2017-Dec-07 00:29N 45°27' E 012°15'0 0.0
2017-Dec-06 23:59N 45°27' E 012°15'0 0.0
2017-Dec-06 23:26N 45°27' E 012°15'0 0.0
2017-Dec-06 23:00N 45°27' E 012°15'0 0.0
2017-Dec-06 22:30N 45°27' E 012°15'0 0.0
2017-Dec-06 22:00N 45°27' E 012°15'0 0.0
2017-Dec-06 21:30N 45°27' E 012°15'0 0.0
2017-Dec-06 21:00N 45°27' E 012°15'  
Track history (hours):
 
Tides and Currents Weather Stations Pressure Air Temp Water Temp Dewpoint Dewpoint Depression Visibility Wind Speed Wind Dir Waves Ship Positions

Asiatic Liberty

Last reported at 2017-Dec-14 13:08 UTC. Time now 2017-Dec-16 09:18 UTC.
Position N 31°51' E 034°38'.

Length 150 m; draft 8.4 m.

Type: Ship (hazmat cat A). MMSI: 565834000.

Date/timePositionNaut miles runAvg speedWind from/ knotsBaromVisibWave heightAir tempDewpointWater temp
2017-Dec-14 13:08N 31°51' E 034°38'1 5.2
2017-Dec-14 12:59N 31°51' E 034°37'11 1.9
2017-Dec-14 07:24N 32°01' E 034°31'2 3.6
2017-Dec-14 06:47N 32°03' E 034°32'1 4.0
2017-Dec-14 06:29N 32°04' E 034°32'2 4.4
2017-Dec-14 06:00N 32°06' E 034°33'2 4.4
2017-Dec-14 05:30N 32°08' E 034°33'2 4.6
2017-Dec-14 05:00N 32°10' E 034°34'2 4.5
2017-Dec-14 04:30N 32°12' E 034°35'2 4.6
2017-Dec-14 04:00N 32°15' E 034°36'2 4.6
2017-Dec-14 03:30N 32°17' E 034°37'2 4.6
2017-Dec-14 03:00N 32°19' E 034°37'2 4.6
2017-Dec-14 02:30N 32°21' E 034°38'2 4.6
2017-Dec-14 02:00N 32°23' E 034°39'2 4.5
2017-Dec-14 01:30N 32°26' E 034°39'2 4.6
2017-Dec-14 01:00N 32°28' E 034°40'2 4.7
2017-Dec-14 00:30N 32°30' E 034°41'2 4.6
2017-Dec-14 00:00N 32°32' E 034°42'2 4.6
2017-Dec-13 23:30N 32°35' E 034°43'2 4.5
2017-Dec-13 23:00N 32°37' E 034°43'2 4.3
2017-Dec-13 22:30N 32°39' E 034°44'2 4.2
2017-Dec-13 22:00N 32°41' E 034°45'2 4.3
2017-Dec-13 21:30N 32°43' E 034°46'2 4.4
2017-Dec-13 21:00N 32°45' E 034°47'2 4.6
2017-Dec-13 20:30N 32°47' E 034°48'2 4.5
2017-Dec-13 20:00N 32°49' E 034°49'2 4.5
2017-Dec-13 19:30N 32°51' E 034°49'2 3.4
2017-Dec-13 19:00N 32°52' E 034°51'2 4.1
2017-Dec-13 18:30N 32°52' E 034°54'2 4.3
2017-Dec-13 17:58N 32°52' E 034°56'4 4.4
2017-Dec-13 17:03N 32°51' E 035°01'0 4.1
2017-Dec-13 16:59N 32°51' E 035°01'11 0.7
2017-Dec-13 01:49N 32°53' E 034°48'3 9.6
2017-Dec-13 01:30N 32°54' E 034°45'8 9.6
2017-Dec-13 00:42N 32°55' E 034°36'310.2
2017-Dec-13 00:26N 32°56' E 034°33'510.2
2017-Dec-12 23:59N 32°57' E 034°27'510.5
2017-Dec-12 23:28N 32°58' E 034°21'510.6
2017-Dec-12 23:00N 32°59' E 034°15'510.6
2017-Dec-12 22:30N 32°60' E 034°09'510.4
2017-Dec-12 22:01N 33°01' E 034°03'610.3
2017-Dec-12 21:22N 33°03' E 033°56'910.6
2017-Dec-12 20:30N 33°06' E 033°45'510.7
2017-Dec-12 20:01N 33°08' E 033°39'41714.6
2017-Dec-11 15:24N 35°29' E 025°44'818.6
2017-Dec-11 14:57N 35°29' E 025°33'818.4
2017-Dec-11 14:31N 35°30' E 025°23'918.5
2017-Dec-11 14:01N 35°31' E 025°12'3517.2
2017-Dec-11 12:00N 35°33' E 024°30'  
2017-Dec-08 23:38N 43°56' E 013°43'210.1
2017-Dec-08 23:29N 43°57' E 013°42'510.0
2017-Dec-08 23:00N 44°00' E 013°36'12 9.7
2017-Dec-08 21:44N 44°07' E 013°22'3 9.7
2017-Dec-08 21:26N 44°09' E 013°19'4 9.8
2017-Dec-08 21:00N 44°11' E 013°14'5 9.8
2017-Dec-08 20:30N 44°14' E 013°08'5 9.9
2017-Dec-08 20:01N 44°16' E 013°03'5 9.7
2017-Dec-08 19:31N 44°19' E 012°57'5 9.7
2017-Dec-08 19:01N 44°21' E 012°51'5 9.8
2017-Dec-08 18:31N 44°24' E 012°45'510.0
2017-Dec-08 18:00N 44°26' E 012°39'510.2
2017-Dec-08 17:31N 44°28' E 012°32'510.3
2017-Dec-08 17:01N 44°30' E 012°25'510.4
2017-Dec-08 16:30N 44°30' E 012°18'4 0.7
2017-Dec-08 10:49N 44°27' E 012°15'0 0.0
2017-Dec-08 10:19N 44°27' E 012°15'0 0.0
2017-Dec-08 09:58N 44°27' E 012°15'0 0.0
2017-Dec-08 09:25N 44°27' E 012°15'0 0.0
2017-Dec-08 08:55N 44°27' E 012°15'0 0.0
2017-Dec-08 08:30N 44°27' E 012°15'0 0.0
2017-Dec-08 08:00N 44°27' E 012°15'0 0.0
2017-Dec-08 07:24N 44°27' E 012°15'0 0.0
2017-Dec-08 06:54N 44°27' E 012°15'0 0.0
2017-Dec-08 06:30N 44°27' E 012°15'0 0.0
2017-Dec-08 05:59N 44°27' E 012°15'0 0.0
2017-Dec-08 05:14N 44°27' E 012°15'0 0.0
2017-Dec-08 04:56N 44°27' E 012°15'0 0.0
2017-Dec-08 02:37N 44°27' E 012°15'1 4.5
2017-Dec-08 02:23N 44°28' E 012°15'2 6.4
2017-Dec-08 02:00N 44°30' E 012°17'5 9.2
2017-Dec-08 01:30N 44°31' E 012°23'611.8
2017-Dec-08 01:00N 44°37' E 012°27'4 8.3
2017-Dec-08 00:30N 44°40' E 012°29'5 8.6
2017-Dec-07 23:59N 44°44' E 012°32'4 9.0
2017-Dec-07 23:30N 44°48' E 012°34'5 9.3
2017-Dec-07 23:00N 44°53' E 012°37'5 9.5
2017-Dec-07 22:30N 44°57' E 012°39'5 9.4
2017-Dec-07 22:00N 45°02' E 012°39'5 9.3
2017-Dec-07 21:30N 45°07' E 012°39'5 9.4
2017-Dec-07 21:00N 45°10' E 012°34'5 9.2
2017-Dec-07 20:31N 45°13' E 012°30'5 9.3
2017-Dec-07 20:00N 45°17' E 012°26'510.0
2017-Dec-07 19:30N 45°20' E 012°21'4 8.7
2017-Dec-07 19:00N 45°22' E 012°15'4 7.9
2017-Dec-07 18:30N 45°26' E 012°16'1 1.9
2017-Dec-07 17:58N 45°27' E 012°15'0 0.0
2017-Dec-07 17:28N 45°27' E 012°15'0 0.0
2017-Dec-07 17:00N 45°27' E 012°15'0 0.0
2017-Dec-07 16:30N 45°27' E 012°15'0 0.0
2017-Dec-07 16:00N 45°27' E 012°15'0 0.0
2017-Dec-07 15:30N 45°27' E 012°15'0 0.0
2017-Dec-07 15:00N 45°27' E 012°15'0 0.0
2017-Dec-07 14:29N 45°27' E 012°15'0 0.0
2017-Dec-07 13:59N 45°27' E 012°15'0 0.0
2017-Dec-07 13:29N 45°27' E 012°15'0 0.0
2017-Dec-07 12:59N 45°27' E 012°15'0 0.0
2017-Dec-07 12:28N 45°27' E 012°15'0 0.0
2017-Dec-07 11:58N 45°27' E 012°15'0 0.0
2017-Dec-07 11:28N 45°27' E 012°15'0 0.0
2017-Dec-07 10:58N 45°27' E 012°15'0 0.0
2017-Dec-07 10:28N 45°27' E 012°15'0 0.0
2017-Dec-07 09:57N 45°27' E 012°15'0 0.0
2017-Dec-07 09:30N 45°27' E 012°15'0 0.0
2017-Dec-07 09:00N 45°27' E 012°15'0 0.0
2017-Dec-07 08:30N 45°27' E 012°15'0 0.0
2017-Dec-07 08:00N 45°27' E 012°15'0 0.0
2017-Dec-07 07:29N 45°27' E 012°15'0 0.0
2017-Dec-07 06:59N 45°27' E 012°15'0 0.0
2017-Dec-07 06:29N 45°27' E 012°15'0 0.0
2017-Dec-07 05:56N 45°27' E 012°15'0 0.0
2017-Dec-07 05:28N 45°27' E 012°15'0 0.0
2017-Dec-07 04:58N 45°27' E 012°15'0 0.0
2017-Dec-07 04:19N 45°27' E 012°15'0 0.0
2017-Dec-07 03:58N 45°27' E 012°15'0 0.0
2017-Dec-07 03:31N 45°27' E 012°15'0 0.0
2017-Dec-07 03:00N 45°27' E 012°15'0 0.0
2017-Dec-07 02:30N 45°27' E 012°15'0 0.0
2017-Dec-07 02:00N 45°27' E 012°15'0 0.0
2017-Dec-07 01:30N 45°27' E 012°15'0 0.0
2017-Dec-07 00:59N 45°27' E 012°15'0 0.0
2017-Dec-07 00:29N 45°27' E 012°15'0 0.0
2017-Dec-06 23:59N 45°27' E 012°15'0 0.0
2017-Dec-06 23:26N 45°27' E 012°15'0 0.0
2017-Dec-06 23:00N 45°27' E 012°15'0 0.0
2017-Dec-06 22:30N 45°27' E 012°15'0 0.0
2017-Dec-06 22:00N 45°27' E 012°15'0 0.0
2017-Dec-06 21:30N 45°27' E 012°15'0 0.0
2017-Dec-06 21:00N 45°27' E 012°15'  

Dump ship's entire track history